Shreve Island, Louisiana
Current Conditions -  °F | °C
As of 11:53 PM on Sunday 21 Dec 2014 (Local Time) from KDTN Reporting Station
Overcast Overcast  
Wind Chill: 44°   Ceiling: 800
Heat Index: 48°   Visibility: 10mi
Dew Point: 45°   Wind: 8mph
Humidity: 89%   Direction: 150°SSE
Pressure: 29.87"   Gusts: NA
Location:  32.457°N, 93.7096°W
Report Text: KDTN 220553Z AUTO 15007KT 10SM OVC008 09/07 A2987 RMK AO2 SLP115 T00890072 10117 20083 401440000 55007 $
Loading
Personal Weather Stations






























Interactive Weather Map New forecast layout! Learn more

10-Day Weather Forecast

Advertisements
Track Severe Weather on mobile